sensor_id;sensor_type;location;lat;lon;timestamp;temperature;humidity
66670;DHT22;53568;52.164;4.472;2022-10-18T00:00:42;17.57;77.89
66670;DHT22;53568;52.164;4.472;2022-10-18T00:03:08;17.55;77.96
66670;DHT22;53568;52.164;4.472;2022-10-18T00:05:36;17.55;77.96
66670;DHT22;53568;52.164;4.472;2022-10-18T00:08:02;17.57;77.97
66670;DHT22;53568;52.164;4.472;2022-10-18T00:10:28;17.57;78.12
66670;DHT22;53568;52.164;4.472;2022-10-18T00:12:53;17.55;78.10
66670;DHT22;53568;52.164;4.472;2022-10-18T00:15:18;17.55;78.04
66670;DHT22;53568;52.164;4.472;2022-10-18T00:17:44;17.57;78.00
66670;DHT22;53568;52.164;4.472;2022-10-18T00:20:10;17.53;77.82
66670;DHT22;53568;52.164;4.472;2022-10-18T00:22:38;17.48;77.78
66670;DHT22;53568;52.164;4.472;2022-10-18T00:25:05;17.50;77.83
66670;DHT22;53568;52.164;4.472;2022-10-18T00:27:31;17.46;77.92
66670;DHT22;53568;52.164;4.472;2022-10-18T00:29:57;17.43;77.98
66670;DHT22;53568;52.164;4.472;2022-10-18T00:32:23;17.43;77.93
66670;DHT22;53568;52.164;4.472;2022-10-18T00:34:49;17.41;78.07
66670;DHT22;53568;52.164;4.472;2022-10-18T00:37:15;17.43;78.05
66670;DHT22;53568;52.164;4.472;2022-10-18T00:39:41;17.43;78.02
66670;DHT22;53568;52.164;4.472;2022-10-18T00:42:06;17.43;78.04
66670;DHT22;53568;52.164;4.472;2022-10-18T00:47:04;17.46;77.93
66670;DHT22;53568;52.164;4.472;2022-10-18T00:49:38;17.44;77.85
66670;DHT22;53568;52.164;4.472;2022-10-18T00:52:24;17.44;77.68
66670;DHT22;53568;52.164;4.472;2022-10-18T00:54:51;17.47;77.40
66670;DHT22;53568;52.164;4.472;2022-10-18T00:57:17;17.37;77.52
66670;DHT22;53568;52.164;4.472;2022-10-18T00:59:45;17.34;77.60
66670;DHT22;53568;52.164;4.472;2022-10-18T01:02:14;17.30;77.77
66670;DHT22;53568;52.164;4.472;2022-10-18T01:04:44;17.26;77.88
66670;DHT22;53568;52.164;4.472;2022-10-18T01:10:16;17.19;77.94
66670;DHT22;53568;52.164;4.472;2022-10-18T01:20:46;17.13;77.82
66670;DHT22;53568;52.164;4.472;2022-10-18T01:32:16;17.10;78.12
66670;DHT22;53568;52.164;4.472;2022-10-18T01:34:50;17.12;78.20
66670;DHT22;53568;52.164;4.472;2022-10-18T01:37:20;17.13;78.18
66670;DHT22;53568;52.164;4.472;2022-10-18T01:39:47;17.14;78.21
66670;DHT22;53568;52.164;4.472;2022-10-18T01:42:18;17.14;78.41
66670;DHT22;53568;52.164;4.472;2022-10-18T01:44:47;17.17;78.36
66670;DHT22;53568;52.164;4.472;2022-10-18T01:47:14;17.19;78.10
66670;DHT22;53568;52.164;4.472;2022-10-18T01:49:43;17.12;78.30
66670;DHT22;53568;52.164;4.472;2022-10-18T01:52:12;17.09;78.60
66670;DHT22;53568;52.164;4.472;2022-10-18T01:54:43;17.09;78.80
66670;DHT22;53568;52.164;4.472;2022-10-18T01:57:36;17.10;78.77
66670;DHT22;53568;52.164;4.472;2022-10-18T02:00:14;17.06;78.83
66670;DHT22;53568;52.164;4.472;2022-10-18T02:11:02;17.10;79.22
66670;DHT22;53568;52.164;4.472;2022-10-18T02:13:39;17.12;79.17
66670;DHT22;53568;52.164;4.472;2022-10-18T02:16:14;17.12;78.73
66670;DHT22;53568;52.164;4.472;2022-10-18T02:18:45;17.04;78.79
66670;DHT22;53568;52.164;4.472;2022-10-18T02:21:16;17.02;78.81
66670;DHT22;53568;52.164;4.472;2022-10-18T02:23:45;17.02;78.75
66670;DHT22;53568;52.164;4.472;2022-10-18T02:26:13;17.00;78.89
66670;DHT22;53568;52.164;4.472;2022-10-18T02:28:39;16.99;78.89
66670;DHT22;53568;52.164;4.472;2022-10-18T02:33:56;16.97;78.78
66670;DHT22;53568;52.164;4.472;2022-10-18T02:36:33;16.94;78.71
66670;DHT22;53568;52.164;4.472;2022-10-18T02:39:05;16.93;78.83
66670;DHT22;53568;52.164;4.472;2022-10-18T02:41:32;16.93;78.82
66670;DHT22;53568;52.164;4.472;2022-10-18T02:43:58;16.90;78.86
66670;DHT22;53568;52.164;4.472;2022-10-18T02:46:23;16.84;78.76
66670;DHT22;53568;52.164;4.472;2022-10-18T02:48:49;16.84;78.72
66670;DHT22;53568;52.164;4.472;2022-10-18T02:51:15;16.79;78.63
66670;DHT22;53568;52.164;4.472;2022-10-18T02:53:40;16.76;78.47
66670;DHT22;53568;52.164;4.472;2022-10-18T02:56:06;16.79;78.00
66670;DHT22;53568;52.164;4.472;2022-10-18T02:58:32;16.70;77.83
66670;DHT22;53568;52.164;4.472;2022-10-18T03:00:57;16.65;77.95
66670;DHT22;53568;52.164;4.472;2022-10-18T03:03:23;16.56;78.05
66670;DHT22;53568;52.164;4.472;2022-10-18T03:05:49;16.49;78.33
66670;DHT22;53568;52.164;4.472;2022-10-18T03:08:15;16.42;78.55
66670;DHT22;53568;52.164;4.472;2022-10-18T03:10:43;16.41;78.83
66670;DHT22;53568;52.164;4.472;2022-10-18T03:13:08;16.49;78.99
66670;DHT22;53568;52.164;4.472;2022-10-18T03:15:34;16.53;78.98
66670;DHT22;53568;52.164;4.472;2022-10-18T03:17:59;16.55;79.22
66670;DHT22;53568;52.164;4.472;2022-10-18T03:20:25;16.60;79.37
66670;DHT22;53568;52.164;4.472;2022-10-18T03:22:50;16.62;79.32
66670;DHT22;53568;52.164;4.472;2022-10-18T03:25:16;16.65;79.25
66670;DHT22;53568;52.164;4.472;2022-10-18T03:27:41;16.68;79.14
66670;DHT22;53568;52.164;4.472;2022-10-18T03:30:07;16.63;79.14
66670;DHT22;53568;52.164;4.472;2022-10-18T03:32:33;16.63;79.20
66670;DHT22;53568;52.164;4.472;2022-10-18T03:35:01;16.62;79.29
66670;DHT22;53568;52.164;4.472;2022-10-18T03:37:29;16.63;79.40
66670;DHT22;53568;52.164;4.472;2022-10-18T03:39:55;16.65;79.41
66670;DHT22;53568;52.164;4.472;2022-10-18T03:42:23;16.66;79.39
66670;DHT22;53568;52.164;4.472;2022-10-18T03:44:48;16.66;79.19
66670;DHT22;53568;52.164;4.472;2022-10-18T03:47:14;16.59;79.01
66670;DHT22;53568;52.164;4.472;2022-10-18T03:49:39;16.53;78.73
66670;DHT22;53568;52.164;4.472;2022-10-18T03:52:05;16.48;78.44
66670;DHT22;53568;52.164;4.472;2022-10-18T03:54:30;16.41;78.14
66670;DHT22;53568;52.164;4.472;2022-10-18T03:56:56;16.35;78.34
66670;DHT22;53568;52.164;4.472;2022-10-18T03:59:21;16.33;78.70
66670;DHT22;53568;52.164;4.472;2022-10-18T04:01:47;16.35;78.88
66670;DHT22;53568;52.164;4.472;2022-10-18T04:04:14;16.39;78.82
66670;DHT22;53568;52.164;4.472;2022-10-18T04:06:39;16.36;78.65
66670;DHT22;53568;52.164;4.472;2022-10-18T04:09:05;16.33;78.73
66670;DHT22;53568;52.164;4.472;2022-10-18T04:11:31;16.28;78.93
66670;DHT22;53568;52.164;4.472;2022-10-18T04:13:56;16.26;78.89
66670;DHT22;53568;52.164;4.472;2022-10-18T04:16:24;16.24;78.89
66670;DHT22;53568;52.164;4.472;2022-10-18T04:18:49;16.21;79.00
66670;DHT22;53568;52.164;4.472;2022-10-18T04:21:15;16.28;79.16
66670;DHT22;53568;52.164;4.472;2022-10-18T04:23:41;16.26;79.30
66670;DHT22;53568;52.164;4.472;2022-10-18T04:26:06;16.24;79.34
66670;DHT22;53568;52.164;4.472;2022-10-18T04:28:34;16.21;79.25
66670;DHT22;53568;52.164;4.472;2022-10-18T04:31:05;16.25;79.21
66670;DHT22;53568;52.164;4.472;2022-10-18T04:33:31;16.19;79.22
66670;DHT22;53568;52.164;4.472;2022-10-18T04:35:56;16.21;78.83
66670;DHT22;53568;52.164;4.472;2022-10-18T04:38:22;16.15;78.70
66670;DHT22;53568;52.164;4.472;2022-10-18T04:40:48;16.04;78.97
66670;DHT22;53568;52.164;4.472;2022-10-18T04:43:14;16.08;79.36
66670;DHT22;53568;52.164;4.472;2022-10-18T04:45:40;16.12;79.42
66670;DHT22;53568;52.164;4.472;2022-10-18T04:48:06;16.11;79.39
66670;DHT22;53568;52.164;4.472;2022-10-18T04:50:32;16.12;79.44
66670;DHT22;53568;52.164;4.472;2022-10-18T04:52:58;16.14;79.73
66670;DHT22;53568;52.164;4.472;2022-10-18T04:55:23;16.15;79.82
66670;DHT22;53568;52.164;4.472;2022-10-18T04:57:49;16.19;79.77
66670;DHT22;53568;52.164;4.472;2022-10-18T05:00:14;16.22;79.88
66670;DHT22;53568;52.164;4.472;2022-10-18T05:02:40;16.25;79.88
66670;DHT22;53568;52.164;4.472;2022-10-18T05:05:06;16.28;79.87
66670;DHT22;53568;52.164;4.472;2022-10-18T05:07:31;16.29;79.82
66670;DHT22;53568;52.164;4.472;2022-10-18T05:09:57;16.33;79.31
66670;DHT22;53568;52.164;4.472;2022-10-18T05:12:22;16.26;79.56
66670;DHT22;53568;52.164;4.472;2022-10-18T05:14:48;16.26;79.74
66670;DHT22;53568;52.164;4.472;2022-10-18T05:17:14;16.26;79.91
66670;DHT22;53568;52.164;4.472;2022-10-18T05:19:39;16.29;79.99
66670;DHT22;53568;52.164;4.472;2022-10-18T05:22:05;16.29;79.35
66670;DHT22;53568;52.164;4.472;2022-10-18T05:24:30;16.19;78.26
66670;DHT22;53568;52.164;4.472;2022-10-18T05:26:56;16.06;79.25
66670;DHT22;53568;52.164;4.472;2022-10-18T05:29:24;15.98;79.91
66670;DHT22;53568;52.164;4.472;2022-10-18T05:31:50;15.98;80.19
66670;DHT22;53568;52.164;4.472;2022-10-18T05:34:17;16.04;80.26
66670;DHT22;53568;52.164;4.472;2022-10-18T05:36:42;16.05;80.17
66670;DHT22;53568;52.164;4.472;2022-10-18T05:39:08;16.04;79.46
66670;DHT22;53568;52.164;4.472;2022-10-18T05:41:34;16.01;79.46
66670;DHT22;53568;52.164;4.472;2022-10-18T05:44:04;15.95;79.55
66670;DHT22;53568;52.164;4.472;2022-10-18T05:46:30;15.92;79.80
66670;DHT22;53568;52.164;4.472;2022-10-18T05:48:56;15.95;79.90
66670;DHT22;53568;52.164;4.472;2022-10-18T05:51:21;16.04;79.65
66670;DHT22;53568;52.164;4.472;2022-10-18T05:53:47;15.97;78.36
66670;DHT22;53568;52.164;4.472;2022-10-18T05:56:13;15.80;78.09
66670;DHT22;53568;52.164;4.472;2022-10-18T05:58:40;15.62;79.60
66670;DHT22;53568;52.164;4.472;2022-10-18T06:01:06;15.61;80.16
66670;DHT22;53568;52.164;4.472;2022-10-18T06:03:32;15.68;80.40
66670;DHT22;53568;52.164;4.472;2022-10-18T06:06:07;15.78;80.22
66670;DHT22;53568;52.164;4.472;2022-10-18T06:08:34;15.82;79.46
66670;DHT22;53568;52.164;4.472;2022-10-18T06:11:05;15.74;79.54
66670;DHT22;53568;52.164;4.472;2022-10-18T06:13:31;15.74;79.67
66670;DHT22;53568;52.164;4.472;2022-10-18T06:15:57;15.81;79.37
66670;DHT22;53568;52.164;4.472;2022-10-18T06:18:22;15.80;78.87
66670;DHT22;53568;52.164;4.472;2022-10-18T06:20:48;15.70;78.79
66670;DHT22;53568;52.164;4.472;2022-10-18T06:23:13;15.55;78.98
66670;DHT22;53568;52.164;4.472;2022-10-18T06:25:39;15.46;79.41
66670;DHT22;53568;52.164;4.472;2022-10-18T06:28:05;15.50;79.46
66670;DHT22;53568;52.164;4.472;2022-10-18T06:30:30;15.51;79.40
66670;DHT22;53568;52.164;4.472;2022-10-18T06:32:59;15.51;79.25
66670;DHT22;53568;52.164;4.472;2022-10-18T06:35:25;15.58;79.01
66670;DHT22;53568;52.164;4.472;2022-10-18T06:37:50;15.62;78.49
66670;DHT22;53568;52.164;4.472;2022-10-18T06:40:16;15.62;77.86
66670;DHT22;53568;52.164;4.472;2022-10-18T06:42:41;15.62;77.74
66670;DHT22;53568;52.164;4.472;2022-10-18T06:45:07;15.60;77.72
66670;DHT22;53568;52.164;4.472;2022-10-18T06:47:33;15.64;77.42
66670;DHT22;53568;52.164;4.472;2022-10-18T06:49:58;15.72;76.58
66670;DHT22;53568;52.164;4.472;2022-10-18T06:52:24;15.70;76.90
66670;DHT22;53568;52.164;4.472;2022-10-18T06:54:50;15.77;76.34
66670;DHT22;53568;52.164;4.472;2022-10-18T06:57:16;15.75;76.44
66670;DHT22;53568;52.164;4.472;2022-10-18T06:59:42;15.87;76.32
66670;DHT22;53568;52.164;4.472;2022-10-18T07:02:11;15.91;76.19
66670;DHT22;53568;52.164;4.472;2022-10-18T07:04:38;16.00;75.58
66670;DHT22;53568;52.164;4.472;2022-10-18T07:07:04;16.00;75.16
66670;DHT22;53568;52.164;4.472;2022-10-18T07:09:29;15.88;75.55
66670;DHT22;53568;52.164;4.472;2022-10-18T07:11:55;15.92;75.70
66670;DHT22;53568;52.164;4.472;2022-10-18T07:14:20;16.05;75.32
66670;DHT22;53568;52.164;4.472;2022-10-18T07:16:46;16.00;74.95
66670;DHT22;53568;52.164;4.472;2022-10-18T07:19:11;16.09;74.98
66670;DHT22;53568;52.164;4.472;2022-10-18T07:21:38;16.18;74.85
66670;DHT22;53568;52.164;4.472;2022-10-18T07:24:03;16.25;74.93
66670;DHT22;53568;52.164;4.472;2022-10-18T07:26:31;16.32;74.81
66670;DHT22;53568;52.164;4.472;2022-10-18T07:29:07;16.42;74.24
66670;DHT22;53568;52.164;4.472;2022-10-18T07:31:32;16.45;73.96
66670;DHT22;53568;52.164;4.472;2022-10-18T07:33:58;16.44;74.22
66670;DHT22;53568;52.164;4.472;2022-10-18T07:36:24;16.55;73.51
66670;DHT22;53568;52.164;4.472;2022-10-18T07:38:51;16.56;73.45
66670;DHT22;53568;52.164;4.472;2022-10-18T07:41:17;16.63;73.34
66670;DHT22;53568;52.164;4.472;2022-10-18T07:43:47;16.72;72.34
66670;DHT22;53568;52.164;4.472;2022-10-18T07:46:15;16.76;72.61
66670;DHT22;53568;52.164;4.472;2022-10-18T07:48:41;16.73;72.51
66670;DHT22;53568;52.164;4.472;2022-10-18T07:51:07;16.82;71.95
66670;DHT22;53568;52.164;4.472;2022-10-18T07:53:33;16.87;71.56
66670;DHT22;53568;52.164;4.472;2022-10-18T07:56:00;16.93;71.44
66670;DHT22;53568;52.164;4.472;2022-10-18T07:58:27;16.93;71.68
66670;DHT22;53568;52.164;4.472;2022-10-18T08:00:53;16.99;71.76
66670;DHT22;53568;52.164;4.472;2022-10-18T08:03:19;17.06;71.84
66670;DHT22;53568;52.164;4.472;2022-10-18T08:05:51;17.16;71.88
66670;DHT22;53568;52.164;4.472;2022-10-18T08:08:17;17.20;71.56
66670;DHT22;53568;52.164;4.472;2022-10-18T08:10:42;17.23;71.31
66670;DHT22;53568;52.164;4.472;2022-10-18T08:13:08;17.27;71.19
66670;DHT22;53568;52.164;4.472;2022-10-18T08:15:33;17.30;71.05
66670;DHT22;53568;52.164;4.472;2022-10-18T08:17:59;17.38;71.27
66670;DHT22;53568;52.164;4.472;2022-10-18T08:20:24;17.44;71.69
66670;DHT22;53568;52.164;4.472;2022-10-18T08:22:50;17.50;71.91
66670;DHT22;53568;52.164;4.472;2022-10-18T08:25:16;17.54;72.18
66670;DHT22;53568;52.164;4.472;2022-10-18T08:27:41;17.61;72.39
66670;DHT22;53568;52.164;4.472;2022-10-18T08:30:07;17.64;72.45
66670;DHT22;53568;52.164;4.472;2022-10-18T08:32:34;17.66;72.43
66670;DHT22;53568;52.164;4.472;2022-10-18T08:35:00;17.68;72.44
66670;DHT22;53568;52.164;4.472;2022-10-18T08:37:25;17.75;72.36
66670;DHT22;53568;52.164;4.472;2022-10-18T08:39:51;17.80;72.36
66670;DHT22;53568;52.164;4.472;2022-10-18T08:44:48;17.94;71.45
66670;DHT22;53568;52.164;4.472;2022-10-18T08:47:20;17.94;71.35
66670;DHT22;53568;52.164;4.472;2022-10-18T08:52:34;17.95;71.55
66670;DHT22;53568;52.164;4.472;2022-10-18T08:55:04;17.97;71.62
66670;DHT22;53568;52.164;4.472;2022-10-18T08:57:39;18.00;71.49
66670;DHT22;53568;52.164;4.472;2022-10-18T09:00:33;18.02;70.88
66670;DHT22;53568;52.164;4.472;2022-10-18T09:03:19;18.01;70.59
66670;DHT22;53568;52.164;4.472;2022-10-18T09:05:54;18.04;70.24
66670;DHT22;53568;52.164;4.472;2022-10-18T09:11:02;18.18;69.03
66670;DHT22;53568;52.164;4.472;2022-10-18T09:16:16;18.15;67.77
66670;DHT22;53568;52.164;4.472;2022-10-18T09:24:04;18.02;66.97
66670;DHT22;53568;52.164;4.472;2022-10-18T09:26:43;18.08;66.22
66670;DHT22;53568;52.164;4.472;2022-10-18T09:34:49;18.18;66.22
66670;DHT22;53568;52.164;4.472;2022-10-18T09:37:19;18.18;65.70
66670;DHT22;53568;52.164;4.472;2022-10-18T09:39:48;18.13;64.62
66670;DHT22;53568;52.164;4.472;2022-10-18T09:42:35;18.13;64.47
66670;DHT22;53568;52.164;4.472;2022-10-18T09:45:33;18.09;62.78
66670;DHT22;53568;52.164;4.472;2022-10-18T09:50:59;18.05;62.36
66670;DHT22;53568;52.164;4.472;2022-10-18T09:53:38;18.18;62.77
66670;DHT22;53568;52.164;4.472;2022-10-18T09:56:13;18.21;62.93
66670;DHT22;53568;52.164;4.472;2022-10-18T09:58:49;18.28;63.74
66670;DHT22;53568;52.164;4.472;2022-10-18T10:01:25;18.35;63.46
66670;DHT22;53568;52.164;4.472;2022-10-18T10:03:51;18.36;63.10
66670;DHT22;53568;52.164;4.472;2022-10-18T10:06:27;18.35;62.18
66670;DHT22;53568;52.164;4.472;2022-10-18T10:09:04;18.32;62.07
66670;DHT22;53568;52.164;4.472;2022-10-18T10:17:04;18.26;62.42
66670;DHT22;53568;52.164;4.472;2022-10-18T10:19:31;18.35;62.71
66670;DHT22;53568;52.164;4.472;2022-10-18T10:22:05;18.38;61.92
66670;DHT22;53568;52.164;4.472;2022-10-18T10:27:05;18.43;61.74
66670;DHT22;53568;52.164;4.472;2022-10-18T10:32:14;18.52;61.58
66670;DHT22;53568;52.164;4.472;2022-10-18T10:34:40;18.62;60.58
66670;DHT22;53568;52.164;4.472;2022-10-18T10:37:34;18.45;60.80
66670;DHT22;53568;52.164;4.472;2022-10-18T10:40:25;18.08;62.33
66670;DHT22;53568;52.164;4.472;2022-10-18T10:45:21;18.04;63.56
66670;DHT22;53568;52.164;4.472;2022-10-18T10:47:48;18.05;63.14
66670;DHT22;53568;52.164;4.472;2022-10-18T10:50:23;18.12;61.45
66670;DHT22;53568;52.164;4.472;2022-10-18T10:52:48;18.09;62.11
66670;DHT22;53568;52.164;4.472;2022-10-18T10:55:23;18.22;62.53
66670;DHT22;53568;52.164;4.472;2022-10-18T10:57:51;18.16;62.98
66670;DHT22;53568;52.164;4.472;2022-10-18T11:00:43;18.19;63.48
66670;DHT22;53568;52.164;4.472;2022-10-18T11:03:14;18.28;63.32
66670;DHT22;53568;52.164;4.472;2022-10-18T11:05:43;18.22;63.54
66670;DHT22;53568;52.164;4.472;2022-10-18T11:08:14;18.13;64.07
66670;DHT22;53568;52.164;4.472;2022-10-18T11:11:14;18.26;64.27
66670;DHT22;53568;52.164;4.472;2022-10-18T11:13:50;18.29;64.30
66670;DHT22;53568;52.164;4.472;2022-10-18T11:19:48;18.25;62.86
66670;DHT22;53568;52.164;4.472;2022-10-18T11:22:22;18.33;59.98
66670;DHT22;53568;52.164;4.472;2022-10-18T11:24:49;18.45;61.67
66670;DHT22;53568;52.164;4.472;2022-10-18T11:27:27;18.48;60.93
66670;DHT22;53568;52.164;4.472;2022-10-18T11:30:02;18.35;62.98
66670;DHT22;53568;52.164;4.472;2022-10-18T11:36:06;18.48;62.51
66670;DHT22;53568;52.164;4.472;2022-10-18T11:38:28;18.65;63.47
66670;DHT22;53568;52.164;4.472;2022-10-18T11:44:01;18.18;62.65
66670;DHT22;53568;52.164;4.472;2022-10-18T11:46:50;18.15;63.57
66670;DHT22;53568;52.164;4.472;2022-10-18T11:52:26;18.00;63.01
66670;DHT22;53568;52.164;4.472;2022-10-18T12:00:26;18.16;62.33
66670;DHT22;53568;52.164;4.472;2022-10-18T12:05:28;18.11;60.07
66670;DHT22;53568;52.164;4.472;2022-10-18T12:08:10;17.97;60.23
66670;DHT22;53568;52.164;4.472;2022-10-18T12:10:42;18.06;59.45
66670;DHT22;53568;52.164;4.472;2022-10-18T12:13:15;18.13;59.75
66670;DHT22;53568;52.164;4.472;2022-10-18T12:15:42;18.36;60.66
66670;DHT22;53568;52.164;4.472;2022-10-18T12:18:22;18.45;59.43
66670;DHT22;53568;52.164;4.472;2022-10-18T12:20:53;18.46;60.26
66670;DHT22;53568;52.164;4.472;2022-10-18T12:26:01;18.32;59.84
66670;DHT22;53568;52.164;4.472;2022-10-18T12:31:21;18.22;58.46
66670;DHT22;53568;52.164;4.472;2022-10-18T12:33:53;18.16;59.77
66670;DHT22;53568;52.164;4.472;2022-10-18T12:38:59;18.39;59.51
66670;DHT22;53568;52.164;4.472;2022-10-18T12:41:29;18.43;59.97
66670;DHT22;53568;52.164;4.472;2022-10-18T12:44:04;18.48;58.71
66670;DHT22;53568;52.164;4.472;2022-10-18T12:46:54;18.45;58.62
66670;DHT22;53568;52.164;4.472;2022-10-18T12:49:38;18.38;59.40
66670;DHT22;53568;52.164;4.472;2022-10-18T12:52:21;18.32;59.22
66670;DHT22;53568;52.164;4.472;2022-10-18T13:18:54;17.98;60.78
66670;DHT22;53568;52.164;4.472;2022-10-18T13:21:39;17.68;62.49
66670;DHT22;53568;52.164;4.472;2022-10-18T13:26:56;17.54;61.41
66670;DHT22;53568;52.164;4.472;2022-10-18T13:32:34;17.50;60.82
66670;DHT22;53568;52.164;4.472;2022-10-18T13:35:01;17.53;60.70
66670;DHT22;53568;52.164;4.472;2022-10-18T13:37:28;17.50;61.65
66670;DHT22;53568;52.164;4.472;2022-10-18T13:40:20;17.70;60.86
66670;DHT22;53568;52.164;4.472;2022-10-18T13:42:47;17.88;59.80
66670;DHT22;53568;52.164;4.472;2022-10-18T13:51:17;17.75;60.87
66670;DHT22;53568;52.164;4.472;2022-10-18T13:54:13;17.81;60.39
66670;DHT22;53568;52.164;4.472;2022-10-18T13:56:50;17.80;60.22
66670;DHT22;53568;52.164;4.472;2022-10-18T14:02:13;17.70;59.36
66670;DHT22;53568;52.164;4.472;2022-10-18T14:07:21;17.61;58.99
66670;DHT22;53568;52.164;4.472;2022-10-18T14:09:52;17.63;59.84
66670;DHT22;53568;52.164;4.472;2022-10-18T14:12:37;17.68;60.16
66670;DHT22;53568;52.164;4.472;2022-10-18T14:17:51;17.53;60.70
66670;DHT22;53568;52.164;4.472;2022-10-18T14:20:25;17.40;60.03
66670;DHT22;53568;52.164;4.472;2022-10-18T14:23:18;17.17;61.63
66670;DHT22;53568;52.164;4.472;2022-10-18T14:25:46;17.34;62.30
66670;DHT22;53568;52.164;4.472;2022-10-18T14:28:20;17.43;62.50
66670;DHT22;53568;52.164;4.472;2022-10-18T14:31:10;17.63;62.60
66670;DHT22;53568;52.164;4.472;2022-10-18T14:33:51;17.63;63.85
66670;DHT22;53568;52.164;4.472;2022-10-18T14:38:53;17.22;65.81
66670;DHT22;53568;52.164;4.472;2022-10-18T14:41:20;17.34;64.42
66670;DHT22;53568;52.164;4.472;2022-10-18T14:43:46;17.17;63.87
66670;DHT22;53568;52.164;4.472;2022-10-18T14:46:19;17.14;64.71
66670;DHT22;53568;52.164;4.472;2022-10-18T14:48:55;17.28;64.37
66670;DHT22;53568;52.164;4.472;2022-10-18T14:51:22;17.23;64.51
66670;DHT22;53568;52.164;4.472;2022-10-18T14:53:48;17.20;65.37
66670;DHT22;53568;52.164;4.472;2022-10-18T14:56:25;17.14;65.26
66670;DHT22;53568;52.164;4.472;2022-10-18T14:58:53;17.03;66.06
66670;DHT22;53568;52.164;4.472;2022-10-18T15:01:26;17.13;65.71
66670;DHT22;53568;52.164;4.472;2022-10-18T15:03:59;17.03;64.94
66670;DHT22;53568;52.164;4.472;2022-10-18T15:06:26;16.87;64.95
66670;DHT22;53568;52.164;4.472;2022-10-18T15:08:56;16.99;64.07
66670;DHT22;53568;52.164;4.472;2022-10-18T15:11:23;17.00;63.19
66670;DHT22;53568;52.164;4.472;2022-10-18T15:14:02;17.06;62.70
66670;DHT22;53568;52.164;4.472;2022-10-18T15:16:31;17.19;62.73
66670;DHT22;53568;52.164;4.472;2022-10-18T15:21:58;17.06;63.23
66670;DHT22;53568;52.164;4.472;2022-10-18T15:24:30;17.10;62.73
66670;DHT22;53568;52.164;4.472;2022-10-18T15:27:21;17.13;62.96
66670;DHT22;53568;52.164;4.472;2022-10-18T15:29:45;17.04;62.96
66670;DHT22;53568;52.164;4.472;2022-10-18T15:32:28;16.93;63.10
66670;DHT22;53568;52.164;4.472;2022-10-18T15:35:06;16.82;63.74
66670;DHT22;53568;52.164;4.472;2022-10-18T15:37:40;16.66;64.53
66670;DHT22;53568;52.164;4.472;2022-10-18T15:40:18;16.73;64.43
66670;DHT22;53568;52.164;4.472;2022-10-18T15:42:44;16.68;64.97
66670;DHT22;53568;52.164;4.472;2022-10-18T15:45:31;16.77;64.97
66670;DHT22;53568;52.164;4.472;2022-10-18T16:01:00;16.60;66.00
66670;DHT22;53568;52.164;4.472;2022-10-18T16:03:26;16.83;65.42
66670;DHT22;53568;52.164;4.472;2022-10-18T16:06:02;16.76;65.66
66670;DHT22;53568;52.164;4.472;2022-10-18T16:08:28;16.76;65.77
66670;DHT22;53568;52.164;4.472;2022-10-18T16:11:01;16.69;66.47
66670;DHT22;53568;52.164;4.472;2022-10-18T16:13:27;16.65;66.72
66670;DHT22;53568;52.164;4.472;2022-10-18T16:15:53;16.73;66.43
66670;DHT22;53568;52.164;4.472;2022-10-18T16:18:24;16.59;67.06
66670;DHT22;53568;52.164;4.472;2022-10-18T16:20:50;16.48;67.42
66670;DHT22;53568;52.164;4.472;2022-10-18T16:23:22;16.45;67.64
66670;DHT22;53568;52.164;4.472;2022-10-18T16:25:48;16.15;68.96
66670;DHT22;53568;52.164;4.472;2022-10-18T16:28:20;16.05;69.21
66670;DHT22;53568;52.164;4.472;2022-10-18T16:30:53;16.06;69.20
66670;DHT22;53568;52.164;4.472;2022-10-18T16:33:19;16.00;69.45
66670;DHT22;53568;52.164;4.472;2022-10-18T16:35:44;16.02;69.49
66670;DHT22;53568;52.164;4.472;2022-10-18T16:38:29;15.80;70.03
66670;DHT22;53568;52.164;4.472;2022-10-18T16:40:55;15.97;69.51
66670;DHT22;53568;52.164;4.472;2022-10-18T16:43:21;15.87;69.86
66670;DHT22;53568;52.164;4.472;2022-10-18T16:45:47;15.95;69.66
66670;DHT22;53568;52.164;4.472;2022-10-18T16:48:17;15.95;69.54
66670;DHT22;53568;52.164;4.472;2022-10-18T16:50:43;16.04;69.26
66670;DHT22;53568;52.164;4.472;2022-10-18T16:53:09;15.84;70.09
66670;DHT22;53568;52.164;4.472;2022-10-18T16:55:37;15.75;70.32
66670;DHT22;53568;52.164;4.472;2022-10-18T16:58:04;15.68;70.43
66670;DHT22;53568;52.164;4.472;2022-10-18T17:00:30;15.62;70.76
66670;DHT22;53568;52.164;4.472;2022-10-18T17:02:56;15.67;70.70
66670;DHT22;53568;52.164;4.472;2022-10-18T17:05:22;15.67;70.59
66670;DHT22;53568;52.164;4.472;2022-10-18T17:07:48;15.62;70.64
66670;DHT22;53568;52.164;4.472;2022-10-18T17:10:16;15.53;70.95
66670;DHT22;53568;52.164;4.472;2022-10-18T17:12:42;15.62;70.59
66670;DHT22;53568;52.164;4.472;2022-10-18T17:15:09;15.47;71.22
66670;DHT22;53568;52.164;4.472;2022-10-18T17:17:35;15.43;71.43
66670;DHT22;53568;52.164;4.472;2022-10-18T17:20:02;15.44;71.19
66670;DHT22;53568;52.164;4.472;2022-10-18T17:22:29;15.53;71.02
66670;DHT22;53568;52.164;4.472;2022-10-18T17:24:55;15.49;71.08
66670;DHT22;53568;52.164;4.472;2022-10-18T17:27:20;15.57;70.85
66670;DHT22;53568;52.164;4.472;2022-10-18T17:29:46;15.54;70.76
66670;DHT22;53568;52.164;4.472;2022-10-18T17:32:11;15.61;70.59
66670;DHT22;53568;52.164;4.472;2022-10-18T17:34:37;15.67;70.53
66670;DHT22;53568;52.164;4.472;2022-10-18T17:37:03;15.64;70.58
66670;DHT22;53568;52.164;4.472;2022-10-18T17:39:28;15.67;70.54
66670;DHT22;53568;52.164;4.472;2022-10-18T17:41:54;15.71;70.45
66670;DHT22;53568;52.164;4.472;2022-10-18T17:44:20;15.78;69.99
66670;DHT22;53568;52.164;4.472;2022-10-18T17:46:46;15.41;71.05
66670;DHT22;53568;52.164;4.472;2022-10-18T17:49:12;15.51;70.87
66670;DHT22;53568;52.164;4.472;2022-10-18T17:51:38;15.46;71.12
66670;DHT22;53568;52.164;4.472;2022-10-18T17:54:06;15.33;71.39
66670;DHT22;53568;52.164;4.472;2022-10-18T17:56:31;15.41;70.54
66670;DHT22;53568;52.164;4.472;2022-10-18T17:58:58;15.19;71.45
66670;DHT22;53568;52.164;4.472;2022-10-18T18:01:24;15.34;71.06
66670;DHT22;53568;52.164;4.472;2022-10-18T18:03:55;15.36;71.07
66670;DHT22;53568;52.164;4.472;2022-10-18T18:06:27;15.30;71.30
66670;DHT22;53568;52.164;4.472;2022-10-18T18:09:02;15.31;71.12
66670;DHT22;53568;52.164;4.472;2022-10-18T18:11:29;15.44;70.64
66670;DHT22;53568;52.164;4.472;2022-10-18T18:13:55;15.28;71.15
66670;DHT22;53568;52.164;4.472;2022-10-18T18:16:24;15.30;71.14
66670;DHT22;53568;52.164;4.472;2022-10-18T18:18:54;15.30;71.26
66670;DHT22;53568;52.164;4.472;2022-10-18T18:21:21;15.37;71.05
66670;DHT22;53568;52.164;4.472;2022-10-18T18:23:48;15.37;71.05
66670;DHT22;53568;52.164;4.472;2022-10-18T18:26:14;15.46;70.80